Time;durP1;ratioP1;P1;durP2;ratioP2;P2;SDS_P1;SDS_P2;PMS_P1;PMS_P2;Temp;Humidity;BMP_temperature;BMP_pressure;BME280_temperature;BME280_humidity;BME280_pressure;Samples;Min_cycle;Max_cycle;Signal;HPM_P1;HPM_P2
2021/04/03 00:00:15;;;;;;;17.03;15.30;;;7.10;99.90;;;;;;5114586;28;20438;-66
2021/04/03 00:02:42;;;;;;;17.60;14.90;;;7.20;99.90;;;;;;5114441;28;20486;-66
2021/04/03 00:05:12;;;;;;;17.07;15.43;;;7.10;99.90;;;;;;5114394;28;20523;-66
2021/04/03 00:07:39;;;;;;;17.30;16.20;;;7.10;99.90;;;;;;5114468;28;20457;-65
2021/04/03 00:10:08;;;;;;;18.93;15.70;;;7.00;99.90;;;;;;5114276;28;20448;-66
2021/04/03 00:12:34;;;;;;;19.30;14.90;;;6.90;99.90;;;;;;5114240;28;20477;-66
2021/04/03 00:15:00;;;;;;;17.83;15.60;;;6.90;99.90;;;;;;5114100;28;21000;-67
2021/04/03 00:17:26;;;;;;;15.07;13.90;;;6.80;99.90;;;;;;5114121;28;20534;-66
2021/04/03 00:19:55;;;;;;;14.50;13.20;;;6.70;99.90;;;;;;5114222;28;20452;-65
2021/04/03 00:22:22;;;;;;;16.40;14.80;;;6.60;99.90;;;;;;5113971;28;20453;-65
2021/04/03 00:24:48;;;;;;;15.73;14.20;;;6.50;99.90;;;;;;5113921;28;20445;-65
2021/04/03 00:27:14;;;;;;;17.00;15.50;;;6.40;99.90;;;;;;5114036;28;20506;-65
2021/04/03 00:29:41;;;;;;;16.63;15.13;;;6.30;99.90;;;;;;5114183;28;20444;-64
2021/04/03 00:32:07;;;;;;;17.97;14.97;;;6.30;99.90;;;;;;5113829;28;20481;-65
2021/04/03 00:34:33;;;;;;;18.23;15.80;;;6.20;99.90;;;;;;5113682;28;20811;-64
2021/04/03 00:37:00;;;;;;;17.27;16.10;;;6.20;99.90;;;;;;5113752;28;20466;-64
2021/04/03 00:39:27;;;;;;;21.07;17.10;;;6.10;99.90;;;;;;5113936;28;20498;-65
2021/04/03 00:41:53;;;;;;;43.27;17.60;;;6.10;99.90;;;;;;5113667;28;20448;-65
2021/04/03 00:44:19;;;;;;;32.03;16.00;;;6.10;99.90;;;;;;5113599;28;20506;-65
2021/04/03 00:46:46;;;;;;;17.43;14.93;;;6.10;99.90;;;;;;5113614;28;20499;-64
2021/04/03 00:49:12;;;;;;;16.67;15.03;;;6.00;99.90;;;;;;5113595;28;20438;-65
2021/04/03 00:51:39;;;;;;;22.53;15.97;;;6.00;99.90;;;;;;5113504;28;20473;-65
2021/04/03 00:54:07;;;;;;;20.53;16.47;;;6.00;99.90;;;;;;5113357;28;20473;-64
2021/04/03 00:56:35;;;;;;;21.73;17.43;;;6.00;99.90;;;;;;5113382;28;20437;-64
2021/04/03 00:59:02;;;;;;;15.47;14.03;;;5.90;99.90;;;;;;5113486;28;20444;-64
2021/04/03 01:01:28;;;;;;;17.17;15.30;;;5.90;99.90;;;;;;5113434;28;20467;-64
2021/04/03 01:03:54;;;;;;;20.43;16.10;;;6.00;99.90;;;;;;5113106;28;20487;-65
2021/04/03 01:06:20;;;;;;;20.00;17.07;;;6.00;99.90;;;;;;5112429;28;20437;-64
2021/04/03 01:08:47;;;;;;;20.27;13.17;;;6.00;99.90;;;;;;5113295;28;20940;-64
2021/04/03 01:11:13;;;;;;;16.70;15.00;;;6.10;99.90;;;;;;5113258;28;20437;-64
2021/04/03 01:13:53;;;;;;;14.70;13.60;;;6.10;99.90;;;;;;5112826;28;20823;-64
2021/04/03 01:16:27;;;;;;;14.57;13.17;;;6.20;99.90;;;;;;5112974;28;20934;-64
2021/04/03 01:19:05;;;;;;;15.80;14.13;;;6.20;99.90;;;;;;5113061;28;20464;-64
2021/04/03 01:22:04;;;;;;;15.83;14.07;;;6.30;99.90;;;;;;5112741;28;20498;-65
2021/04/03 01:24:41;;;;;;;14.10;13.20;;;6.30;99.90;;;;;;5112740;28;20437;-64
2021/04/03 01:27:15;;;;;;;16.37;14.70;;;6.30;99.90;;;;;;5112768;28;20457;-65
2021/04/03 01:30:15;;;;;;;16.33;14.77;;;6.30;99.90;;;;;;5112733;28;20448;-64
2021/04/03 01:32:47;;;;;;;15.10;13.60;;;6.40;99.90;;;;;;5029746;28;20508;-64
2021/04/03 01:35:17;;;;;;;17.43;14.33;;;6.40;99.90;;;;;;5029987;28;20457;-65
2021/04/03 01:37:48;;;;;;;15.73;14.20;;;6.40;99.90;;;;;;5071790;28;20535;-64
2021/04/03 01:40:18;;;;;;;14.80;13.60;;;6.40;99.90;;;;;;5112713;28;20438;-64
2021/04/03 01:42:46;;;;;;;15.90;14.50;;;6.30;99.90;;;;;;5112513;28;20444;-65
2021/04/03 01:45:15;;;;;;;15.53;14.23;;;6.40;99.90;;;;;;5112664;28;20437;-65
2021/04/03 01:47:42;;;;;;;16.43;14.70;;;6.40;99.90;;;;;;5112425;28;20461;-65
2021/04/03 01:50:10;;;;;;;13.17;12.13;;;6.50;99.90;;;;;;5112541;28;20450;-65
2021/04/03 01:52:37;;;;;;;15.53;14.40;;;6.30;99.90;;;;;;5112393;28;20481;-65
2021/04/03 01:55:10;;;;;;;13.80;12.43;;;6.20;99.90;;;;;;5112229;28;20438;-65
2021/04/03 01:57:38;;;;;;;12.00;11.30;;;6.20;99.90;;;;;;5112457;28;20465;-65
2021/04/03 02:00:08;;;;;;;13.23;12.10;;;6.20;99.90;;;;;;5112486;28;20810;-65
2021/04/03 02:02:36;;;;;;;13.90;12.70;;;6.20;99.90;;;;;;5112256;28;20437;-65
2021/04/03 02:05:04;;;;;;;14.67;13.50;;;6.10;99.90;;;;;;5112108;28;20549;-65
2021/04/03 02:07:30;;;;;;;13.47;12.40;;;6.10;99.90;;;;;;5112274;28;20511;-66
2021/04/03 02:09:59;;;;;;;14.07;12.57;;;6.10;99.90;;;;;;5112168;28;20449;-65
2021/04/03 02:12:25;;;;;;;15.27;13.67;;;6.10;99.90;;;;;;5112133;28;20477;-65
2021/04/03 02:14:54;;;;;;;15.33;13.77;;;6.10;99.90;;;;;;5111862;28;20433;-65
2021/04/03 02:17:21;;;;;;;15.17;13.97;;;6.10;99.90;;;;;;5111793;28;20458;-64
2021/04/03 02:19:48;;;;;;;15.33;14.17;;;6.10;99.90;;;;;;5112103;28;20433;-65
2021/04/03 02:22:16;;;;;;;17.27;15.43;;;6.10;99.90;;;;;;5112051;28;20452;-65
2021/04/03 02:24:43;;;;;;;24.43;15.40;;;6.20;99.90;;;;;;5111781;28;20441;-65
2021/04/03 02:27:10;;;;;;;15.93;14.70;;;6.20;99.90;;;;;;5112019;28;20804;-65
2021/04/03 02:29:36;;;;;;;16.60;15.30;;;6.20;99.90;;;;;;5112093;28;20438;-65
2021/04/03 02:32:03;;;;;;;16.17;14.67;;;6.20;99.90;;;;;;5111874;28;20469;-65
2021/04/03 02:34:29;;;;;;;15.13;13.73;;;6.30;99.90;;;;;;5111701;28;20942;-64
2021/04/03 02:36:56;;;;;;;18.50;15.87;;;6.30;99.90;;;;;;5112036;28;20457;-63
2021/04/03 02:39:22;;;;;;;19.33;15.00;;;6.30;99.90;;;;;;5111754;28;20429;-63
2021/04/03 02:41:56;;;;;;;17.23;13.37;;;6.30;99.90;;;;;;5112105;28;20438;-63
2021/04/03 02:44:28;;;;;;;15.17;13.77;;;6.30;99.90;;;;;;5111562;28;20539;-63
2021/04/03 02:47:03;;;;;;;18.40;13.30;;;6.30;99.90;;;;;;5111743;28;20461;-64
2021/04/03 02:49:35;;;;;;;14.63;13.33;;;6.40;99.90;;;;;;5111763;28;20449;-64
2021/04/03 02:52:05;;;;;;;14.93;12.20;;;6.30;99.90;;;;;;5111507;28;21019;-64
2021/04/03 02:54:33;;;;;;;14.40;12.80;;;6.30;99.90;;;;;;5111413;28;20441;-64
2021/04/03 02:57:01;;;;;;;15.70;14.33;;;6.30;98.50;;;;;;5111404;28;20978;-63
2021/04/03 02:59:30;;;;;;;14.00;12.63;;;6.40;98.80;;;;;;5111580;28;20440;-65
2021/04/03 03:01:58;;;;;;;13.53;12.53;;;6.40;97.60;;;;;;5111520;28;20444;-64
2021/04/03 03:04:25;;;;;;;15.67;14.07;;;6.40;97.90;;;;;;5111346;28;20969;-64
2021/04/03 03:06:52;;;;;;;14.00;12.97;;;6.40;99.10;;;;;;5111333;28;20518;-63
2021/04/03 03:09:22;;;;;;;24.13;17.37;;;6.30;99.90;;;;;;5111399;28;20437;-65
2021/04/03 03:11:52;;;;;;;15.67;13.93;;;6.40;99.90;;;;;;5111445;28;20935;-64
2021/04/03 03:14:18;;;;;;;15.47;14.00;;;6.40;99.90;;;;;;5111243;28;21209;-64
2021/04/03 03:16:47;;;;;;;22.70;15.43;;;6.40;99.90;;;;;;5111304;28;20466;-66
2021/04/03 03:19:15;;;;;;;14.63;13.23;;;6.40;99.90;;;;;;5111394;28;20441;-65
2021/04/03 03:21:42;;;;;;;15.67;13.20;;;6.40;99.90;;;;;;5111384;28;20464;-65
2021/04/03 03:24:11;;;;;;;14.53;13.37;;;6.40;99.80;;;;;;5111094;28;20927;-64
2021/04/03 03:26:38;;;;;;;14.77;13.67;;;6.40;99.90;;;;;;5111281;28;20450;-64
2021/04/03 03:29:09;;;;;;;16.33;13.87;;;6.40;99.90;;;;;;5112650;28;20441;-65
2021/04/03 03:31:35;;;;;;;15.20;13.90;;;6.40;99.90;;;;;;5114999;28;20498;-65
2021/04/03 03:34:02;;;;;;;15.67;14.27;;;6.40;99.90;;;;;;5114741;28;20444;-65
2021/04/03 03:36:29;;;;;;;14.63;12.93;;;6.40;99.90;;;;;;5114818;28;20458;-67
2021/04/03 03:38:56;;;;;;;24.37;15.20;;;6.40;99.90;;;;;;5114860;28;20445;-66
2021/04/03 03:41:23;;;;;;;16.07;14.33;;;6.40;99.90;;;;;;5114924;28;20429;-66
2021/04/03 03:43:51;;;;;;;15.00;13.70;;;6.40;99.90;;;;;;5114478;28;20506;-65
2021/04/03 03:46:17;;;;;;;18.23;15.00;;;6.40;99.90;;;;;;5114675;28;20441;-65
2021/04/03 03:48:43;;;;;;;13.53;12.43;;;6.40;99.90;;;;;;5114615;28;20437;-67
2021/04/03 03:51:09;;;;;;;15.37;13.40;;;6.40;99.90;;;;;;5114639;28;20448;-65
2021/04/03 03:53:36;;;;;;;16.70;14.03;;;6.40;99.90;;;;;;5114245;28;20473;-66
2021/04/03 03:56:02;;;;;;;14.40;13.30;;;6.40;99.90;;;;;;5114508;28;20946;-65
2021/04/03 03:58:28;;;;;;;18.63;15.30;;;6.30;99.90;;;;;;5114371;28;20521;-66
2021/04/03 04:00:55;;;;;;;15.63;14.10;;;6.40;99.90;;;;;;5114538;28;20980;-66
2021/04/03 04:03:22;;;;;;;16.57;13.57;;;6.40;99.90;;;;;;5114136;28;20471;-66
2021/04/03 04:05:48;;;;;;;16.27;14.57;;;6.50;99.90;;;;;;5114314;28;20923;-65
2021/04/03 04:08:17;;;;;;;16.63;13.67;;;6.50;99.90;;;;;;5114218;28;20461;-66
2021/04/03 04:10:44;;;;;;;17.60;14.33;;;6.50;99.90;;;;;;5114270;28;20453;-66
2021/04/03 04:13:10;;;;;;;18.30;14.53;;;6.50;99.90;;;;;;5114047;28;20947;-66
2021/04/03 04:15:36;;;;;;;15.87;14.27;;;6.50;99.90;;;;;;5114282;28;20441;-65
2021/04/03 04:18:05;;;;;;;16.23;14.07;;;6.60;99.90;;;;;;5114054;28;20457;-65
2021/04/03 04:20:32;;;;;;;16.77;15.03;;;6.60;99.90;;;;;;5113946;28;20460;-66
2021/04/03 04:22:58;;;;;;;15.43;14.00;;;6.50;99.90;;;;;;5113861;28;20528;-66
2021/04/03 04:25:25;;;;;;;15.50;14.10;;;6.60;99.90;;;;;;5113959;28;20445;-66
2021/04/03 04:27:51;;;;;;;15.17;13.77;;;6.60;99.90;;;;;;5113985;28;20465;-65
2021/04/03 04:30:18;;;;;;;16.97;15.03;;;6.50;99.90;;;;;;5113858;28;20445;-64
2021/04/03 04:32:45;;;;;;;22.90;16.00;;;6.50;99.90;;;;;;5113552;28;20477;-66
2021/04/03 04:35:13;;;;;;;22.10;14.70;;;6.50;99.90;;;;;;5113756;28;20473;-65
2021/04/03 04:37:40;;;;;;;15.90;14.40;;;6.50;99.90;;;;;;5113730;28;20971;-66
2021/04/03 04:40:08;;;;;;;17.17;13.90;;;6.40;99.90;;;;;;5113658;28;20841;-66
2021/04/03 04:42:35;;;;;;;22.50;14.20;;;6.30;99.90;;;;;;5113618;28;20931;-66
2021/04/03 04:45:01;;;;;;;15.47;14.20;;;6.20;99.90;;;;;;5113488;28;20441;-66
2021/04/03 04:47:27;;;;;;;15.57;14.13;;;6.30;99.90;;;;;;5113406;28;20487;-66
2021/04/03 04:49:53;;;;;;;15.40;13.83;;;6.20;99.90;;;;;;5113618;28;20729;-65
2021/04/03 04:52:21;;;;;;;17.90;14.30;;;6.20;99.90;;;;;;5113407;28;20473;-66
2021/04/03 04:54:47;;;;;;;15.27;13.87;;;6.20;99.90;;;;;;5113318;28;20446;-65
2021/04/03 04:57:13;;;;;;;16.07;14.23;;;6.20;99.90;;;;;;5113277;28;20443;-66
2021/04/03 04:59:39;;;;;;;15.57;14.23;;;6.30;99.90;;;;;;5113317;28;20441;-67
2021/04/03 05:02:06;;;;;;;18.13;14.30;;;6.30;99.90;;;;;;5113294;28;20524;-64
2021/04/03 05:04:32;;;;;;;14.40;13.13;;;6.30;99.90;;;;;;5113182;28;20449;-64
2021/04/03 05:06:58;;;;;;;19.87;14.80;;;6.30;99.90;;;;;;5112876;28;20604;-65
2021/04/03 05:09:25;;;;;;;16.50;14.80;;;6.30;99.90;;;;;;5113038;28;20448;-65
2021/04/03 05:11:51;;;;;;;20.53;16.60;;;6.30;99.90;;;;;;5112870;28;20442;-65
2021/04/03 05:14:17;;;;;;;15.50;14.03;;;6.30;99.90;;;;;;5112771;28;20445;-65
2021/04/03 05:16:44;;;;;;;17.30;15.60;;;6.20;99.90;;;;;;5112950;28;20458;-65
2021/04/03 05:19:10;;;;;;;18.73;16.83;;;6.20;99.90;;;;;;5113152;28;20798;-64
2021/04/03 05:21:36;;;;;;;17.97;15.37;;;6.20;99.90;;;;;;5112819;28;20460;-65
2021/04/03 05:24:02;;;;;;;16.23;14.63;;;6.20;99.90;;;;;;5112711;28;20460;-65
2021/04/03 05:26:29;;;;;;;15.93;14.80;;;6.30;99.90;;;;;;5112659;28;20450;-65
2021/04/03 05:28:55;;;;;;;18.57;15.03;;;6.30;99.90;;;;;;5113063;28;20448;-65
2021/04/03 05:31:22;;;;;;;16.70;15.47;;;6.40;99.90;;;;;;5113104;28;20442;-65
2021/04/03 05:33:48;;;;;;;16.73;15.00;;;6.40;99.90;;;;;;5112332;28;20544;-66
2021/04/03 05:36:14;;;;;;;15.83;14.43;;;6.50;99.90;;;;;;5112599;28;20437;-67
2021/04/03 05:38:40;;;;;;;20.60;15.90;;;6.50;99.90;;;;;;5112649;28;20473;-65
2021/04/03 05:41:07;;;;;;;19.73;16.07;;;6.50;99.90;;;;;;5112716;28;20448;-66
2021/04/03 05:43:35;;;;;;;16.67;15.27;;;6.50;99.90;;;;;;5112348;28;20935;-66
2021/04/03 05:46:03;;;;;;;20.13;15.73;;;6.70;99.90;;;;;;5112515;28;20433;-66
2021/04/03 05:48:30;;;;;;;16.83;14.97;;;6.70;99.90;;;;;;5112296;28;20522;-65
2021/04/03 05:51:00;;;;;;;16.47;14.97;;;6.80;99.90;;;;;;5112105;28;20449;-66
2021/04/03 05:53:27;;;;;;;18.87;16.80;;;6.90;99.90;;;;;;5112064;28;20480;-67
2021/04/03 05:55:54;;;;;;;17.03;15.30;;;6.90;99.90;;;;;;5112344;28;20446;-66
2021/04/03 05:58:20;;;;;;;18.27;16.47;;;6.90;99.90;;;;;;5112205;28;20461;-66
2021/04/03 06:00:48;;;;;;;17.20;15.70;;;7.10;99.90;;;;;;5112185;28;20441;-65
2021/04/03 06:03:17;;;;;;;15.43;13.83;;;7.10;99.90;;;;;;5111973;28;21146;-66
2021/04/03 06:05:44;;;;;;;15.37;13.77;;;7.30;99.90;;;;;;5111928;28;20441;-65
2021/04/03 06:08:10;;;;;;;18.10;16.30;;;7.40;99.90;;;;;;5112041;28;20525;-65
2021/04/03 06:10:37;;;;;;;15.60;14.00;;;7.50;99.90;;;;;;5112036;28;20927;-66
2021/04/03 06:13:03;;;;;;;17.00;15.33;;;7.50;99.90;;;;;;5111731;28;20541;-66
2021/04/03 06:15:36;;;;;;;15.17;13.73;;;7.70;99.90;;;;;;5111984;28;20445;-65
2021/04/03 06:18:11;;;;;;;15.47;14.17;;;7.70;99.90;;;;;;5111842;28;20464;-66
2021/04/03 06:20:41;;;;;;;15.20;13.50;;;7.70;99.90;;;;;;5111866;28;20995;-64
2021/04/03 06:23:08;;;;;;;19.13;15.10;;;7.50;99.90;;;;;;5111825;28;20440;-66
2021/04/03 06:25:53;;;;;;;15.63;14.13;;;7.30;99.90;;;;;;5112112;28;20464;-67
2021/04/03 06:28:26;;;;;;;19.23;15.53;;;7.20;99.90;;;;;;5111859;28;20461;-66
2021/04/03 06:30:52;;;;;;;16.57;14.87;;;7.00;99.90;;;;;;5112046;28;20461;-66
2021/04/03 06:33:20;;;;;;;18.60;16.83;;;7.00;99.90;;;;;;5111588;28;20513;-67
2021/04/03 06:36:04;;;;;;;20.77;18.37;;;7.00;99.90;;;;;;5112005;28;20783;-66
2021/04/03 06:38:31;;;;;;;17.70;15.93;;;7.10;99.90;;;;;;5111769;28;20465;-67
2021/04/03 06:41:19;;;;;;;22.80;16.70;;;7.00;99.90;;;;;;5111737;28;20453;-66
2021/04/03 06:44:00;;;;;;;17.93;16.23;;;7.00;99.90;;;;;;5111566;28;20438;-67
2021/04/03 06:46:27;;;;;;;18.07;16.37;;;6.90;99.90;;;;;;5111649;28;20440;-68
2021/04/03 06:48:55;;;;;;;18.33;16.10;;;6.90;99.90;;;;;;5111630;28;20437;-67
2021/04/03 06:51:23;;;;;;;22.23;15.70;;;7.00;99.90;;;;;;5111667;28;20433;-67
2021/04/03 06:53:51;;;;;;;18.60;16.80;;;7.00;99.90;;;;;;5111458;28;20477;-68
2021/04/03 06:56:20;;;;;;;17.20;14.77;;;7.10;99.90;;;;;;5111591;28;20442;-65
2021/04/03 06:58:47;;;;;;;22.57;16.90;;;7.10;99.90;;;;;;5111464;28;20787;-67
2021/04/03 07:01:16;;;;;;;22.63;16.23;;;7.20;99.90;;;;;;5111685;28;20441;-66
2021/04/03 07:03:48;;;;;;;17.33;14.50;;;7.30;99.90;;;;;;5112261;28;20429;-68
2021/04/03 07:06:16;;;;;;;19.17;14.37;;;7.30;99.90;;;;;;5115602;28;20441;-68
2021/04/03 07:08:43;;;;;;;17.97;16.00;;;7.40;99.90;;;;;;5115482;28;20448;-68
2021/04/03 07:11:09;;;;;;;19.73;14.80;;;7.50;99.90;;;;;;5115439;28;20950;-66
2021/04/03 07:13:36;;;;;;;35.40;19.70;;;7.60;99.90;;;;;;5114785;28;20477;-65
2021/04/03 07:16:04;;;;;;;18.00;16.23;;;7.50;99.90;;;;;;5115470;28;20476;-67
2021/04/03 07:18:31;;;;;;;16.87;14.17;;;7.60;99.90;;;;;;5115160;28;20842;-68
2021/04/03 07:20:58;;;;;;;16.50;14.70;;;7.80;99.90;;;;;;5115224;28;20457;-68
2021/04/03 07:23:26;;;;;;;16.53;14.93;;;7.80;99.90;;;;;;5114946;28;20946;-67
2021/04/03 07:25:53;;;;;;;19.20;14.77;;;8.00;99.90;;;;;;5115240;28;20433;-66
2021/04/03 07:28:21;;;;;;;16.90;14.33;;;8.40;99.90;;;;;;5115208;28;20982;-65
2021/04/03 07:30:48;;;;;;;22.70;15.13;;;8.60;99.90;;;;;;5115064;28;20449;-68
2021/04/03 07:33:16;;;;;;;16.80;15.07;;;8.90;99.60;;;;;;5114677;28;20473;-65
2021/04/03 07:35:48;;;;;;;16.20;14.47;;;9.10;97.50;;;;;;5114993;28;20444;-64
2021/04/03 07:38:16;;;;;;;23.30;13.93;;;9.10;95.20;;;;;;5114720;28;20475;-65
2021/04/03 07:40:46;;;;;;;18.00;16.23;;;9.40;94.20;;;;;;5114809;28;20501;-66
2021/04/03 07:43:39;;;;;;;21.83;16.43;;;9.70;93.60;;;;;;5114884;28;20923;-66
2021/04/03 07:46:10;;;;;;;16.63;15.00;;;10.00;91.70;;;;;;5114950;28;20842;-66
2021/04/03 07:48:50;;;;;;;24.67;16.40;;;10.20;91.30;;;;;;5114668;28;20461;-67
2021/04/03 07:51:44;;;;;;;16.40;15.27;;;10.10;88.90;;;;;;5114803;28;20456;-65
2021/04/03 07:54:34;;;;;;;15.47;14.30;;;10.00;84.70;;;;;;5109868;28;20474;-63
2021/04/03 07:57:05;;;;;;;20.53;15.60;;;10.10;82.40;;;;;;5114463;28;20461;-66
2021/04/03 07:59:58;;;;;;;20.93;15.40;;;10.20;81.80;;;;;;5114457;28;20520;-67
2021/04/03 08:02:26;;;;;;;21.83;14.83;;;10.00;82.50;;;;;;5114400;28;20445;-66
2021/04/03 08:04:53;;;;;;;22.30;15.00;;;9.80;84.10;;;;;;5114229;28;20494;-64
2021/04/03 08:07:22;;;;;;;17.10;15.57;;;9.90;87.10;;;;;;5114206;28;20461;-66
2021/04/03 08:09:49;;;;;;;18.97;16.60;;;10.40;86.30;;;;;;5114347;28;20581;-66
2021/04/03 08:12:15;;;;;;;22.67;15.73;;;10.80;84.10;;;;;;5114115;28;20445;-67
2021/04/03 08:14:43;;;;;;;17.70;14.97;;;10.90;81.00;;;;;;5113553;28;20857;-64
2021/04/03 08:17:19;;;;;;;15.60;14.20;;;10.90;79.00;;;;;;5114002;28;20515;-64
2021/04/03 08:19:45;;;;;;;16.80;15.27;;;10.80;77.40;;;;;;5114089;28;20441;-63
2021/04/03 08:22:12;;;;;;;17.53;15.70;;;10.80;75.90;;;;;;5113982;28;20464;-68
2021/04/03 08:24:39;;;;;;;17.77;16.10;;;10.60;74.60;;;;;;5113752;28;20935;-65
2021/04/03 08:27:07;;;;;;;16.93;15.20;;;10.40;74.80;;;;;;5113819;28;20472;-65
2021/04/03 08:29:36;;;;;;;17.63;16.03;;;10.20;75.10;;;;;;5114077;28;20930;-65
2021/04/03 08:32:05;;;;;;;16.90;15.37;;;10.30;76.90;;;;;;5113838;28;20458;-65
2021/04/03 08:34:31;;;;;;;18.00;16.37;;;10.50;77.60;;;;;;5113646;28;20445;-65
2021/04/03 08:36:58;;;;;;;16.70;14.97;;;10.20;75.00;;;;;;5113759;28;20461;-65
2021/04/03 08:39:26;;;;;;;18.73;17.00;;;10.20;77.40;;;;;;5113573;28;20438;-65
2021/04/03 08:41:58;;;;;;;17.10;15.47;;;9.80;79.20;;;;;;5113598;28;20448;-65
2021/04/03 08:44:26;;;;;;;16.30;15.20;;;9.80;80.50;;;;;;5113384;28;20525;-64
2021/04/03 08:46:54;;;;;;;17.73;16.23;;;9.90;80.20;;;;;;5113038;28;20998;-66
2021/04/03 08:49:23;;;;;;;19.40;15.67;;;9.70;80.00;;;;;;5113546;28;20934;-66
2021/04/03 08:51:50;;;;;;;18.47;16.03;;;9.60;80.30;;;;;;5113472;28;20439;-70
2021/04/03 08:54:16;;;;;;;17.63;15.93;;;9.50;80.80;;;;;;5113185;28;20473;-65
2021/04/03 08:56:43;;;;;;;18.47;16.37;;;9.70;81.80;;;;;;5113078;28;20495;-64
2021/04/03 08:59:14;;;;;;;24.93;16.57;;;9.90;82.00;;;;;;5113256;28;20440;-64
2021/04/03 09:01:45;;;;;;;16.77;15.00;;;9.90;79.90;;;;;;5113158;28;20432;-65
2021/04/03 09:04:11;;;;;;;20.00;17.67;;;9.70;79.80;;;;;;5113090;28;20440;-66
2021/04/03 09:06:42;;;;;;;16.07;14.83;;;9.60;80.10;;;;;;5113236;28;20461;-66
2021/04/03 09:09:10;;;;;;;15.87;14.67;;;9.90;81.10;;;;;;5113119;28;20467;-64
2021/04/03 09:11:37;;;;;;;16.57;15.10;;;10.20;85.00;;;;;;5113039;28;20912;-66
2021/04/03 09:14:04;;;;;;;15.87;14.27;;;10.60;81.20;;;;;;5112698;28;20477;-68
2021/04/03 09:16:36;;;;;;;19.57;15.67;;;10.60;79.40;;;;;;5113024;28;20441;-66
2021/04/03 09:19:03;;;;;;;17.93;16.23;;;10.70;79.80;;;;;;5112975;28;20954;-65
2021/04/03 09:21:30;;;;;;;17.57;16.07;;;10.50;74.80;;;;;;5112780;28;20468;-65
2021/04/03 09:23:56;;;;;;;19.33;16.37;;;10.20;76.40;;;;;;5112716;28;20437;-64
2021/04/03 09:26:34;;;;;;;18.73;17.10;;;10.40;75.80;;;;;;5112143;28;21007;-65
2021/04/03 09:29:09;;;;;;;16.77;15.30;;;10.10;75.90;;;;;;5112545;28;20775;-65
2021/04/03 09:31:43;;;;;;;17.30;15.63;;;10.50;78.10;;;;;;5112703;28;20440;-65
2021/04/03 09:34:10;;;;;;;27.20;16.97;;;10.60;76.60;;;;;;5112417;28;20480;-65
2021/04/03 09:36:43;;;;;;;26.70;16.17;;;10.50;75.10;;;;;;5112481;28;20446;-65
2021/04/03 09:39:17;;;;;;;19.70;17.53;;;10.60;75.80;;;;;;5112575;28;20438;-67
2021/04/03 09:41:47;;;;;;;18.90;16.90;;;10.40;77.30;;;;;;5112552;28;21145;-66
2021/04/03 09:44:14;;;;;;;19.03;17.40;;;10.70;77.50;;;;;;5112221;28;20509;-66
2021/04/03 09:46:40;;;;;;;17.93;16.57;;;10.80;76.00;;;;;;5112330;28;20457;-67
2021/04/03 09:49:09;;;;;;;19.47;17.53;;;10.70;74.80;;;;;;5112382;28;20498;-65
2021/04/03 09:51:36;;;;;;;18.00;16.33;;;10.90;75.20;;;;;;5112435;28;20449;-65
2021/04/03 09:54:02;;;;;;;24.63;20.10;;;11.30;77.30;;;;;;5111944;28;20468;-64
2021/04/03 09:56:29;;;;;;;18.17;16.43;;;11.30;72.60;;;;;;5112131;28;20445;-63
2021/04/03 09:58:57;;;;;;;18.80;17.20;;;11.00;73.30;;;;;;5111976;28;20441;-63
2021/04/03 10:01:23;;;;;;;17.43;15.80;;;11.80;77.60;;;;;;5112194;28;20452;-63
2021/04/03 10:03:49;;;;;;;17.33;16.17;;;11.20;70.20;;;;;;5111794;28;20444;-67
2021/04/03 10:06:16;;;;;;;20.10;17.73;;;10.80;71.50;;;;;;5112223;28;20445;-66
2021/04/03 10:08:43;;;;;;;22.33;17.67;;;11.10;76.00;;;;;;5112104;28;20472;-64
2021/04/03 10:11:09;;;;;;;20.73;18.73;;;11.70;77.10;;;;;;5111871;28;20438;-66
2021/04/03 10:13:35;;;;;;;19.87;17.80;;;11.50;72.50;;;;;;5111869;28;20481;-67
2021/04/03 10:16:01;;;;;;;17.47;15.83;;;11.20;71.50;;;;;;5111937;28;20437;-64
2021/04/03 10:18:27;;;;;;;19.63;17.97;;;11.20;72.30;;;;;;5111848;28;20469;-66
2021/04/03 10:20:54;;;;;;;19.73;18.23;;;11.10;72.80;;;;;;5111903;28;20464;-66
2021/04/03 10:23:21;;;;;;;20.30;18.90;;;11.00;74.10;;;;;;5111681;28;20442;-66
2021/04/03 10:25:47;;;;;;;20.03;17.90;;;11.40;74.60;;;;;;5111952;28;20459;-66
2021/04/03 10:28:14;;;;;;;19.47;17.73;;;11.90;73.20;;;;;;5111835;28;20500;-66
2021/04/03 10:30:40;;;;;;;21.27;19.10;;;11.90;69.20;;;;;;5111939;28;20445;-68
2021/04/03 10:33:06;;;;;;;20.83;18.63;;;12.10;72.60;;;;;;5111660;28;20477;-65
2021/04/03 10:35:32;;;;;;;18.97;17.13;;;12.80;71.30;;;;;;5111912;28;20445;-65
2021/04/03 10:37:59;;;;;;;19.17;17.40;;;13.00;66.40;;;;;;5113123;28;20869;-67
2021/04/03 10:40:26;;;;;;;18.53;16.90;;;12.60;65.50;;;;;;5115929;28;20438;-67
2021/04/03 10:42:52;;;;;;;19.93;18.03;;;12.90;67.60;;;;;;5115811;28;20433;-66
2021/04/03 10:45:19;;;;;;;18.10;16.80;;;13.70;69.90;;;;;;5115958;28;20441;-66
2021/04/03 10:47:45;;;;;;;19.53;18.33;;;14.40;64.90;;;;;;5116502;28;20462;-66
2021/04/03 10:50:12;;;;;;;19.73;18.23;;;15.00;67.30;;;;;;5116445;28;20441;-65
2021/04/03 10:52:39;;;;;;;17.77;16.58;;;15.70;61.70;;;;;;5115141;28;20446;-65
2021/04/03 10:55:06;;;;;;;19.00;17.60;;;16.70;58.80;;;;;;5115636;28;20577;-64
2021/04/03 10:57:37;;;;;;;20.57;18.77;;;17.40;56.40;;;;;;5115697;28;20483;-64
2021/04/03 11:00:05;;;;;;;22.03;20.43;;;16.70;52.50;;;;;;5115664;28;20437;-65
2021/04/03 11:02:31;;;;;;;20.80;19.10;;;16.70;51.10;;;;;;5115660;28;20445;-65
2021/04/03 11:04:57;;;;;;;21.40;18.80;;;16.00;51.10;;;;;;5115435;28;20803;-64
2021/04/03 11:07:24;;;;;;;19.43;18.33;;;16.20;52.20;;;;;;5115811;28;20464;-66
2021/04/03 11:09:50;;;;;;;19.70;18.30;;;16.50;51.30;;;;;;5115534;28;20444;-64
2021/04/03 11:12:16;;;;;;;20.53;19.07;;;15.10;51.00;;;;;;5115249;28;20457;-64
2021/04/03 11:14:43;;;;;;;20.20;18.30;;;16.10;53.50;;;;;;5115065;28;20629;-65
2021/04/03 11:17:12;;;;;;;19.80;18.53;;;17.70;52.40;;;;;;5115276;28;20457;-65
2021/04/03 11:19:39;;;;;;;20.63;19.33;;;19.00;49.90;;;;;;5115599;28;20448;-64
2021/04/03 11:22:06;;;;;;;21.37;19.83;;;18.70;45.50;;;;;;5114976;28;20464;-66
2021/04/03 11:24:33;;;;;;;21.90;20.23;;;20.40;46.00;;;;;;5115371;28;20821;-63
2021/04/03 11:27:00;;;;;;;21.33;19.53;;;20.50;42.50;;;;;;5115631;28;20474;-64
2021/04/03 11:29:26;;;;;;;21.80;20.40;;;20.40;42.90;;;;;;5115524;28;20437;-64
2021/04/03 11:31:53;;;;;;;21.43;19.97;;;21.80;40.20;;;;;;5115519;28;20449;-64
2021/04/03 11:34:19;;;;;;;21.13;19.87;;;23.70;40.00;;;;;;5114681;28;20504;-64
2021/04/03 11:36:45;;;;;;;21.87;20.00;;;25.50;35.80;;;;;;5115032;28;20461;-64
2021/04/03 11:39:12;;;;;;;22.20;20.40;;;22.90;36.50;;;;;;5114822;28;20448;-64
2021/04/03 11:41:38;;;;;;;22.47;20.90;;;23.70;35.50;;;;;;5114899;28;20441;-65
2021/04/03 11:44:04;;;;;;;22.80;21.33;;;25.50;35.50;;;;;;5114575;28;20438;-64
2021/04/03 11:46:30;;;;;;;21.00;19.70;;;25.30;31.90;;;;;;5104724;22;20491;-65
2021/04/03 11:48:57;;;;;;;23.27;21.50;;;27.00;32.40;;;;;;5073604;28;20427;-65
2021/04/03 11:51:24;;;;;;;22.83;21.23;;;27.50;31.30;;;;;;5073919;28;20435;-66
2021/04/03 11:53:50;;;;;;;23.37;21.97;;;29.80;29.60;;;;;;5073926;28;20482;-66
2021/04/03 11:56:17;;;;;;;23.90;22.30;;;31.20;27.00;;;;;;5073904;28;20855;-63
2021/04/03 11:58:43;;;;;;;23.30;21.90;;;32.50;25.40;;;;;;5074076;28;20442;-66
2021/04/03 12:01:10;;;;;;;21.97;20.87;;;33.40;24.90;;;;;;5074187;28;20443;-67
2021/04/03 12:03:36;;;;;;;23.27;21.77;;;33.30;23.50;;;;;;5073699;28;20439;-67
2021/04/03 12:06:03;;;;;;;23.67;22.37;;;33.90;23.80;;;;;;5073958;28;20520;-67
2021/04/03 12:08:30;;;;;;;24.00;22.40;;;31.20;23.00;;;;;;5073895;28;20469;-65
2021/04/03 12:10:56;;;;;;;23.83;22.43;;;29.40;24.90;;;;;;5073709;28;20439;-65
2021/04/03 12:13:23;;;;;;;25.67;23.63;;;27.50;25.70;;;;;;5073298;28;20882;-65
2021/04/03 12:15:49;;;;;;;24.87;23.13;;;25.70;27.80;;;;;;5073708;28;20476;-65
2021/04/03 12:18:16;;;;;;;23.40;21.87;;;26.30;28.10;;;;;;5073663;28;20444;-65
2021/04/03 12:20:42;;;;;;;24.83;22.90;;;22.70;29.50;;;;;;5064535;28;20451;-63
2021/04/03 12:23:12;;;;;;;25.70;24.10;;;22.10;31.60;;;;;;5061695;28;20439;-64
2021/04/03 12:25:38;;;;;;;21.13;19.63;;;22.60;30.60;;;;;;5060581;28;20473;-62
2021/04/03 12:28:05;;;;;;;23.53;21.47;;;21.70;30.50;;;;;;5061788;28;20209;-63
2021/04/03 12:30:31;;;;;;;24.60;23.10;;;21.10;31.80;;;;;;5061945;28;20458;-63
2021/04/03 12:32:57;;;;;;;22.00;20.60;;;24.30;31.80;;;;;;5061649;28;20483;-64
2021/04/03 12:35:23;;;;;;;20.63;19.60;;;24.70;28.50;;;;;;5061544;28;20470;-64
2021/04/03 12:37:50;;;;;;;22.70;21.30;;;27.00;28.40;;;;;;5061641;28;20798;-65